KTVF/TVF METAR and TAF weather

Enter ICAO airport designator
Station Type Date Time Source
KTVF METAR 2024/04/15 07:56 UTC NOAA

KTVF 150756Z AUTO 10003KT 10SM BKN100 06/M03 A3001 RMK AO2 SLP170 T00561033


Station Type Date Time Source
KTVF Decoded METAR 2024/04/15 07:56 UTC NOAA

Thief River Falls, Thief River Falls Regional Airport, MN, United States (KTVF) 48-04N 096-11W
Apr 15, 2024 - 03:56 AM EDT / 2024.04.15 0756 UTC
Wind: from the E (100 degrees) at 3 MPH (3 KT):0
Visibility: 10 mile(s):0
Sky conditions: mostly cloudy
Temperature: 42.1 F (5.6 C)
Dew Point: 26.1 F (-3.3 C)
Relative Humidity: 52%
Pressure (altimeter): 30.01 in. Hg (1016 hPa)
ob: KTVF 150756Z AUTO 10003KT 10SM BKN100 06/M03 A3001 RMK AO2 SLP170 T00561033
cycle: 8

Station Type Date Time Source
KTVF TAF 2024/04/15 07:59 UTC NOAA